Terminal Aerodrome Forecast
Issued by NWS

Home | Current Version | Previous Version | Graphics & Text | Print | Product List | Glossary Off
Versions: 1 2 3 4 5 6 7 8 9 10 11 12 13 14 15

000
FTUS43 KBIS 252300
TAFMOT
TAF
KMOT 252320Z 2600/2624 12006KT P6SM FEW250
     FM261700 18008KT P6SM FEW140
     FM262100 27008KT P6SM BKN250=

USA.gov is the U.S. government's official web portal to all federal, state and local government web resources and services.